createdAt,value
2022-09-14T00:03:11.288Z,51.93
2022-09-14T00:08:16.903Z,52.23
2022-09-14T00:13:22.713Z,52.87
2022-09-14T00:18:29.030Z,52.20
2022-09-14T00:23:37.872Z,52.58
2022-09-14T00:28:46.372Z,53.07
2022-09-14T00:33:53.222Z,52.23
2022-09-14T00:39:00.691Z,51.77
2022-09-14T00:44:14.676Z,52.00
2022-09-14T00:49:37.806Z,52.48
2022-09-14T00:54:45.268Z,52.00
2022-09-14T00:59:52.096Z,51.50
2022-09-14T01:10:16.976Z,51.80
2022-09-14T01:15:27.858Z,53.10
2022-09-14T01:20:44.415Z,52.40
2022-09-14T01:26:11.986Z,52.38
2022-09-14T01:31:32.419Z,52.60
2022-09-14T01:36:39.486Z,52.27
2022-09-14T01:41:46.724Z,52.33
2022-09-14T01:46:55.308Z,52.40
2022-09-14T01:52:12.062Z,52.00
2022-09-14T01:57:29.099Z,51.37
2022-09-14T02:02:38.054Z,51.88
2022-09-14T02:07:43.621Z,52.93
2022-09-14T02:12:50.688Z,52.85
2022-09-14T02:17:56.472Z,52.60
2022-09-14T02:23:02.029Z,52.57
2022-09-14T02:28:06.882Z,52.60
2022-09-14T02:33:23.966Z,51.90
2022-09-14T02:38:49.056Z,51.80
2022-09-14T02:44:02.605Z,52.20
2022-09-14T02:49:19.166Z,52.97
2022-09-14T02:54:27.454Z,52.50
2022-09-14T02:59:32.263Z,53.37
2022-09-14T03:04:37.193Z,52.63
2022-09-14T03:09:44.610Z,52.90
2022-09-14T03:14:49.652Z,53.17
2022-09-14T03:19:54.874Z,54.67
2022-09-14T03:25:00.229Z,54.23
2022-09-14T03:30:06.964Z,53.47
2022-09-14T03:35:12.527Z,52.83
2022-09-14T03:40:21.866Z,52.70
2022-09-14T03:45:26.022Z,52.37
2022-09-14T03:50:31.549Z,52.77
2022-09-14T03:55:37.295Z,52.40
2022-09-14T04:00:42.767Z,52.50
2022-09-14T04:05:53.334Z,52.70
2022-09-14T04:10:58.169Z,53.80
2022-09-14T04:16:04.422Z,52.57
2022-09-14T04:21:12.382Z,52.80
2022-09-14T04:26:22.888Z,52.80
2022-09-14T04:31:29.396Z,52.90
2022-09-14T04:36:34.602Z,53.15
2022-09-14T04:41:39.432Z,54.07
2022-09-14T04:46:46.922Z,53.40
2022-09-14T04:56:56.108Z,52.43
2022-09-14T05:02:01.570Z,53.17
2022-09-14T05:07:06.601Z,53.87
2022-09-14T05:12:11.451Z,52.70
2022-09-14T05:17:16.307Z,53.33
2022-09-14T05:22:22.323Z,53.83
2022-09-14T05:27:27.721Z,54.83
2022-09-14T05:32:32.752Z,55.53
2022-09-14T05:37:37.645Z,55.27
2022-09-14T05:42:42.940Z,54.77
2022-09-14T05:47:49.586Z,54.87
2022-09-14T05:52:56.570Z,54.80
2022-09-14T06:03:07.448Z,54.08
2022-09-14T06:08:12.684Z,55.20
2022-09-14T06:13:17.918Z,55.10
2022-09-14T06:18:24.843Z,57.93
2022-09-14T06:23:30.905Z,57.33
2022-09-14T06:28:38.496Z,56.83
2022-09-14T06:38:52.485Z,59.35
2022-09-14T06:44:01.881Z,64.83
2022-09-14T06:49:10.683Z,57.00
2022-09-14T06:54:17.933Z,55.97
2022-09-14T06:59:23.393Z,55.47
2022-09-14T07:04:30.115Z,56.13
2022-09-14T07:09:35.035Z,55.57
2022-09-14T07:14:40.794Z,59.43
2022-09-14T07:19:46.735Z,114.25
2022-09-14T07:24:51.667Z,83.30
2022-09-14T07:29:57.050Z,61.30
2022-09-14T07:35:02.353Z,63.10
2022-09-14T07:40:09.704Z,59.87
2022-09-14T07:45:15.900Z,58.34
2022-09-14T07:50:21.600Z,64.90
2022-09-14T07:55:26.945Z,72.80
2022-09-14T08:00:33.425Z,72.80
2022-09-14T08:05:39.413Z,70.27
2022-09-14T08:10:44.649Z,67.92
2022-09-14T08:15:49.734Z,63.37
2022-09-14T08:20:54.949Z,69.80
2022-09-14T08:26:15.033Z,67.03
2022-09-14T08:31:22.442Z,66.00
2022-09-14T08:36:31.079Z,66.20
2022-09-14T08:41:49.225Z,63.37
2022-09-14T08:47:10.256Z,62.97
2022-09-14T08:52:38.386Z,62.33
2022-09-14T08:58:13.923Z,64.90
2022-09-14T09:03:37.279Z,63.80
2022-09-14T09:08:54.371Z,62.97
2022-09-14T09:14:00.517Z,65.40
2022-09-14T09:19:08.670Z,64.93
2022-09-14T09:24:19.996Z,67.67
2022-09-14T09:29:25.052Z,67.53
2022-09-14T09:34:31.813Z,64.77
2022-09-14T09:39:38.024Z,63.87
2022-09-14T09:45:03.606Z,64.73
2022-09-14T09:50:20.149Z,62.23
2022-09-14T09:55:29.212Z,59.80
2022-09-14T10:00:35.864Z,57.90
2022-09-14T10:05:41.609Z,58.13
2022-09-14T10:10:48.021Z,58.10
2022-09-14T10:15:55.054Z,57.88
2022-09-14T10:21:07.030Z,58.00
2022-09-14T10:26:15.756Z,56.90
2022-09-14T10:31:31.268Z,58.07
2022-09-14T10:36:42.757Z,59.27
2022-09-14T10:42:07.398Z,58.75
2022-09-14T10:47:30.682Z,58.73
2022-09-14T10:52:57.385Z,59.43
2022-09-14T10:58:07.428Z,59.00
2022-09-14T11:03:30.026Z,59.60
2022-09-14T11:08:44.028Z,57.60
2022-09-14T11:13:55.841Z,59.47
2022-09-14T11:19:10.116Z,59.53
2022-09-14T11:24:39.686Z,60.45
2022-09-14T11:29:51.504Z,59.93
2022-09-14T11:35:12.389Z,60.40
2022-09-14T11:40:26.172Z,59.57
2022-09-14T11:45:35.246Z,59.83
2022-09-14T11:50:42.271Z,60.17
2022-09-14T11:55:50.633Z,59.20
2022-09-14T12:01:27.362Z,58.30
2022-09-14T12:06:38.718Z,64.70
2022-09-14T12:11:46.523Z,62.45
2022-09-14T12:22:29.695Z,61.23
2022-09-14T12:27:40.972Z,60.60
2022-09-14T12:32:46.512Z,59.30
2022-09-14T12:37:51.647Z,59.67
2022-09-14T12:42:57.913Z,59.38
2022-09-14T12:48:03.270Z,58.60
2022-09-14T12:53:17.726Z,60.07
2022-09-14T12:58:28.888Z,58.55
2022-09-14T13:03:47.845Z,57.77
2022-09-14T13:09:00.139Z,58.03
2022-09-14T13:14:07.139Z,58.17
2022-09-14T13:19:33.384Z,57.87
2022-09-14T13:24:41.093Z,57.97
2022-09-14T13:29:46.451Z,58.17
2022-09-14T13:34:52.794Z,57.73
2022-09-14T13:45:05.423Z,57.27
2022-09-14T13:50:14.374Z,56.77
2022-09-14T13:55:31.534Z,56.60
2022-09-14T14:01:06.215Z,57.17
2022-09-14T14:06:29.290Z,56.57
2022-09-14T14:11:46.439Z,56.80
2022-09-14T14:17:27.668Z,56.90
2022-09-14T14:22:38.514Z,56.50
2022-09-14T14:27:47.326Z,57.10
2022-09-14T14:32:55.060Z,58.30
2022-09-14T14:38:01.009Z,58.30
2022-09-14T14:43:09.415Z,57.73
2022-09-14T14:48:15.734Z,58.13
2022-09-14T14:53:23.819Z,57.67
2022-09-14T14:58:36.048Z,58.27
2022-09-14T15:03:37.577Z,57.25
2022-09-14T15:08:43.089Z,57.73
2022-09-14T15:13:49.630Z,58.17
2022-09-14T15:18:54.901Z,65.40
2022-09-14T15:24:00.635Z,69.83
2022-09-14T15:34:12.871Z,56.53
2022-09-14T15:39:23.370Z,55.97
2022-09-14T15:44:28.895Z,57.50
2022-09-14T15:49:34.029Z,57.07
2022-09-14T15:54:40.353Z,57.43
2022-09-14T15:59:45.594Z,57.40
2022-09-14T16:04:51.546Z,58.28
2022-09-14T16:09:58.982Z,57.57
2022-09-14T16:15:04.672Z,57.77
2022-09-14T16:20:11.923Z,59.40
2022-09-14T16:25:17.376Z,59.70
2022-09-14T16:30:23.109Z,58.90
2022-09-14T16:35:28.625Z,59.18
2022-09-14T16:40:34.126Z,63.33
2022-09-14T16:45:40.145Z,64.42
2022-09-14T16:50:45.256Z,64.97
2022-09-14T16:55:51.065Z,65.30
2022-09-14T17:00:56.517Z,68.03
2022-09-14T17:06:04.414Z,68.30
2022-09-14T17:11:10.260Z,67.20
2022-09-14T17:16:18.746Z,67.75
2022-09-14T17:21:26.914Z,67.17
2022-09-14T17:26:33.011Z,66.35
2022-09-14T17:31:41.151Z,67.17
2022-09-14T17:36:47.024Z,68.27
2022-09-14T17:41:54.859Z,67.95
2022-09-14T17:47:01.960Z,67.13
2022-09-14T17:52:07.384Z,67.27
2022-09-14T17:57:12.766Z,65.90
2022-09-14T18:02:20.413Z,63.83
2022-09-14T18:07:25.855Z,62.62
2022-09-14T18:12:36.557Z,62.63
2022-09-14T18:17:44.645Z,63.53
2022-09-14T18:22:52.625Z,61.43
2022-09-14T18:27:57.696Z,61.47
2022-09-14T18:33:03.079Z,61.30
2022-09-14T18:38:09.151Z,61.33
2022-09-14T18:43:16.829Z,60.43
2022-09-14T18:48:23.239Z,60.93
2022-09-14T18:53:28.965Z,61.68
2022-09-14T18:58:35.966Z,64.67
2022-09-14T19:03:44.225Z,78.03
2022-09-14T19:08:50.734Z,75.73
2022-09-14T19:14:10.748Z,69.73
2022-09-14T19:19:15.290Z,70.63
2022-09-14T19:24:23.114Z,71.35
2022-09-14T19:29:33.267Z,73.50
2022-09-14T19:34:40.118Z,72.60
2022-09-14T19:39:46.271Z,78.40
2022-09-14T19:44:53.884Z,81.67
2022-09-14T19:49:59.514Z,77.82
2022-09-14T19:55:07.752Z,68.37
2022-09-14T20:00:18.032Z,68.83
2022-09-14T20:05:23.229Z,60.83
2022-09-14T20:10:29.626Z,61.33
2022-09-14T20:15:38.465Z,59.80
2022-09-14T20:20:45.394Z,59.97
2022-09-14T20:25:53.615Z,59.10
2022-09-14T20:31:04.010Z,66.70
2022-09-14T20:36:13.305Z,72.20
2022-09-14T20:41:21.679Z,71.20
2022-09-14T20:46:35.494Z,72.87
2022-09-14T20:51:42.295Z,74.73
2022-09-14T20:56:48.346Z,73.67
2022-09-14T21:07:01.867Z,73.20
2022-09-14T21:12:10.042Z,71.40
2022-09-14T21:17:18.055Z,71.93
2022-09-14T21:22:26.218Z,85.85
2022-09-14T21:27:32.896Z,97.60
2022-09-14T21:32:38.602Z,67.92
2022-09-14T21:42:52.565Z,75.45
2022-09-14T21:48:00.847Z,70.37
2022-09-14T21:53:08.224Z,67.03
2022-09-14T21:58:13.980Z,62.53
2022-09-14T22:03:22.190Z,59.97
2022-09-14T22:08:28.306Z,59.30
2022-09-14T22:13:35.956Z,59.30
2022-09-14T22:18:42.283Z,60.30
2022-09-14T22:23:53.593Z,57.80
2022-09-14T22:29:00.379Z,57.23
2022-09-14T22:34:05.935Z,56.10
2022-09-14T22:39:12.237Z,56.30
2022-09-14T22:44:18.057Z,55.73
2022-09-14T22:49:23.424Z,56.57
2022-09-14T22:54:28.486Z,55.53
2022-09-14T22:59:33.395Z,54.17
2022-09-14T23:04:38.395Z,54.87
2022-09-14T23:09:43.652Z,53.40
2022-09-14T23:14:49.143Z,52.87
2022-09-14T23:19:54.458Z,53.43
2022-09-14T23:25:00.685Z,52.93
2022-09-14T23:30:06.306Z,53.47
2022-09-14T23:35:13.785Z,53.18
2022-09-14T23:40:19.850Z,53.42
2022-09-14T23:45:25.685Z,52.85
2022-09-14T23:50:31.998Z,52.35
2022-09-14T23:55:37.403Z,53.70
